createdAt,value
2018-10-05T00:01:14.086Z,101884.70
2018-10-05T00:03:42.250Z,101877.71
2018-10-05T00:06:10.413Z,101882.16
2018-10-05T00:08:38.584Z,101875.27
2018-10-05T00:11:06.876Z,101871.67
2018-10-05T00:13:35.107Z,101874.31
2018-10-05T00:16:03.256Z,101875.64
2018-10-05T00:18:31.535Z,101872.89
2018-10-05T00:20:59.704Z,101870.98
2018-10-05T00:23:27.851Z,101869.56
2018-10-05T00:25:56.008Z,101868.98
2018-10-05T00:28:24.163Z,101867.56
2018-10-05T00:30:52.315Z,101863.59
2018-10-05T00:33:20.744Z,101860.09
2018-10-05T00:35:48.903Z,101856.73
2018-10-05T00:38:17.104Z,101857.00
2018-10-05T00:40:45.275Z,101858.69
2018-10-05T00:43:13.435Z,101856.05
2018-10-05T00:45:41.655Z,101857.37
2018-10-05T00:48:09.819Z,101851.70
2018-10-05T00:50:38.010Z,101850.01
2018-10-05T00:53:06.215Z,101846.52
2018-10-05T00:55:34.339Z,101851.91
2018-10-05T00:58:02.491Z,101848.89
2018-10-05T01:00:30.668Z,101843.27
2018-10-05T01:02:58.808Z,101840.62
2018-10-05T01:05:26.964Z,101836.27
2018-10-05T01:07:55.126Z,101832.88
2018-10-05T01:10:23.365Z,101826.47
2018-10-05T01:12:51.511Z,101824.41
2018-10-05T01:15:19.717Z,101827.63
2018-10-05T01:17:47.851Z,101829.91
2018-10-05T01:20:16.042Z,101826.31
2018-10-05T01:22:44.280Z,101821.86
2018-10-05T01:25:12.463Z,101821.02
2018-10-05T01:27:40.615Z,101817.16
2018-10-05T01:30:12.462Z,101807.63
2018-10-05T01:32:42.160Z,101807.15
2018-10-05T01:35:10.355Z,101805.11
2018-10-05T01:37:39.171Z,101798.23
2018-10-05T01:40:07.280Z,101797.39
2018-10-05T01:42:35.456Z,101792.56
2018-10-05T01:45:03.653Z,101792.56
2018-10-05T01:47:31.856Z,101800.51
2018-10-05T01:49:59.992Z,101801.35
2018-10-05T01:52:28.153Z,101792.94
2018-10-05T01:54:56.341Z,101784.62
2018-10-05T01:57:24.491Z,101778.02
2018-10-05T01:59:52.696Z,101775.74
2018-10-05T02:02:27.460Z,101781.51
2018-10-05T02:04:55.604Z,101778.12
2018-10-05T02:07:23.764Z,101779.08
2018-10-05T02:09:51.910Z,101777.75
2018-10-05T02:12:20.048Z,101774.73
2018-10-05T02:14:48.195Z,101778.70
2018-10-05T02:17:16.343Z,101782.41
2018-10-05T02:19:44.535Z,101783.56
2018-10-05T02:22:12.708Z,101785.70
2018-10-05T02:24:40.859Z,101777.23
2018-10-05T02:27:08.983Z,101769.61
2018-10-05T02:29:37.240Z,101769.00
2018-10-05T02:32:05.422Z,101763.55
2018-10-05T02:34:33.594Z,101766.77
2018-10-05T02:37:01.748Z,101766.02
2018-10-05T02:39:29.891Z,101758.05
2018-10-05T02:41:58.070Z,101752.97
2018-10-05T02:44:26.228Z,101750.80
2018-10-05T02:46:54.386Z,101749.95
2018-10-05T02:49:22.537Z,101754.39
2018-10-05T02:51:50.706Z,101750.05
2018-10-05T02:54:18.843Z,101749.21
2018-10-05T02:56:47.034Z,101746.30
2018-10-05T02:59:15.197Z,101740.63
2018-10-05T03:01:54.780Z,101741.48
2018-10-05T03:04:22.935Z,101730.91
2018-10-05T03:06:51.111Z,101729.86
2018-10-05T03:09:19.246Z,101733.34
2018-10-05T03:11:47.427Z,101728.80
2018-10-05T03:14:15.595Z,101724.26
2018-10-05T03:16:43.781Z,101715.85
2018-10-05T03:19:11.976Z,101722.22
2018-10-05T03:21:40.111Z,101726.19
2018-10-05T03:24:08.267Z,101721.52
2018-10-05T03:26:36.427Z,101720.56
2018-10-05T03:29:04.579Z,101722.46
2018-10-05T03:31:32.744Z,101727.86
2018-10-05T03:34:00.884Z,101721.82
2018-10-05T03:36:29.053Z,101716.64
2018-10-05T03:38:57.275Z,101719.28
2018-10-05T03:41:25.431Z,101715.31
2018-10-05T03:43:53.595Z,101712.20
2018-10-05T03:46:21.779Z,101702.95
2018-10-05T03:48:50.015Z,101705.11
2018-10-05T03:51:18.208Z,101693.22
2018-10-05T03:53:46.435Z,101695.28
2018-10-05T03:56:14.622Z,101689.52
2018-10-05T03:58:47.922Z,101688.67
2018-10-05T04:01:16.171Z,101687.45
2018-10-05T04:03:44.363Z,101693.01
2018-10-05T04:06:12.520Z,101689.89
2018-10-05T04:08:40.659Z,101686.88
2018-10-05T04:11:08.832Z,101689.25
2018-10-05T04:13:37.088Z,101682.74
2018-10-05T04:16:05.272Z,101681.89
2018-10-05T04:18:33.452Z,101682.00
2018-10-05T04:21:01.960Z,101678.61
2018-10-05T04:23:30.117Z,101670.79
2018-10-05T04:25:58.337Z,101661.84
2018-10-05T04:28:26.491Z,101660.16
2018-10-05T04:30:54.662Z,101658.56
2018-10-05T04:33:22.839Z,101657.08
2018-10-05T04:35:51.038Z,101652.47
2018-10-05T04:38:19.234Z,101653.90
2018-10-05T04:40:47.426Z,101659.55
2018-10-05T04:43:15.572Z,101656.20
2018-10-05T04:45:43.744Z,101653.56
2018-10-05T04:48:11.934Z,101653.56
2018-10-05T04:50:40.082Z,101653.56
2018-10-05T04:53:08.284Z,101653.90
2018-10-05T04:55:36.451Z,101652.95
2018-10-05T04:58:04.674Z,101654.41
2018-10-05T05:00:32.880Z,101657.52
2018-10-05T05:03:01.079Z,101646.95
2018-10-05T05:05:29.901Z,101645.16
2018-10-05T05:07:58.063Z,101632.05
2018-10-05T05:10:26.290Z,101630.48
2018-10-05T05:12:54.525Z,101633.39
2018-10-05T05:15:22.771Z,101630.28
2018-10-05T05:17:51.041Z,101633.39
2018-10-05T05:20:19.198Z,101633.39
2018-10-05T05:22:47.368Z,101639.53
2018-10-05T05:25:15.525Z,101632.17
2018-10-05T05:27:43.726Z,101632.17
2018-10-05T05:30:11.895Z,101627.37
2018-10-05T05:32:40.064Z,101631.59
2018-10-05T05:35:08.319Z,101634.41
2018-10-05T05:37:36.527Z,101633.45
2018-10-05T05:40:04.883Z,101634.77
2018-10-05T05:42:33.011Z,101636.95
2018-10-05T05:45:01.192Z,101638.74
2018-10-05T05:47:29.378Z,101639.96
2018-10-05T05:49:57.586Z,101629.48
2018-10-05T05:52:25.768Z,101632.13
2018-10-05T05:54:53.950Z,101629.12
2018-10-05T05:57:22.154Z,101625.16
2018-10-05T05:59:50.310Z,101627.42
2018-10-05T06:02:18.527Z,101626.10
2018-10-05T06:04:46.695Z,101631.29
2018-10-05T06:07:14.889Z,101627.80
2018-10-05T06:09:43.066Z,101626.74
2018-10-05T06:12:11.316Z,101627.02
2018-10-05T06:14:39.527Z,101621.98
2018-10-05T06:17:07.752Z,101618.66
2018-10-05T06:19:35.924Z,101622.31
2018-10-05T06:22:04.125Z,101614.06
2018-10-05T06:24:32.288Z,101614.56
2018-10-05T06:27:00.496Z,101617.36
2018-10-05T06:29:28.756Z,101620.16
2018-10-05T06:31:56.920Z,101624.87
2018-10-05T06:34:25.099Z,101622.45
2018-10-05T06:36:53.323Z,101625.36
2018-10-05T06:39:21.603Z,101622.98
2018-10-05T06:41:49.785Z,101623.61
2018-10-05T06:44:17.939Z,101622.66
2018-10-05T06:46:46.147Z,101630.37
2018-10-05T06:49:14.417Z,101633.25
2018-10-05T06:51:42.603Z,101631.72
2018-10-05T06:54:10.743Z,101631.13
2018-10-05T06:56:39.041Z,101634.52
2018-10-05T06:59:07.286Z,101633.45
2018-10-05T07:01:35.620Z,101636.36
2018-10-05T07:04:03.678Z,101630.34
2018-10-05T07:06:31.847Z,101628.44
2018-10-05T07:09:00.031Z,101632.19
2018-10-05T07:11:28.286Z,101631.59
2018-10-05T07:13:56.369Z,101630.53
2018-10-05T07:16:24.597Z,101632.48
2018-10-05T07:18:52.748Z,101634.52
2018-10-05T07:21:20.950Z,101631.17
2018-10-05T07:23:49.167Z,101627.09
2018-10-05T07:26:17.383Z,101632.16
2018-10-05T07:28:45.661Z,101623.63
2018-10-05T07:31:13.727Z,101631.58
2018-10-05T07:33:41.896Z,101629.92
2018-10-05T07:36:10.135Z,101631.61
2018-10-05T07:38:38.302Z,101628.86
2018-10-05T07:41:06.790Z,101622.38
2018-10-05T07:43:34.993Z,101628.05
2018-10-05T07:46:03.236Z,101628.19
2018-10-05T07:48:31.427Z,101624.72
2018-10-05T07:50:59.675Z,101624.61
2018-10-05T07:53:27.857Z,101627.39
2018-10-05T07:55:57.010Z,101621.64
2018-10-05T07:58:25.248Z,101624.91
2018-10-05T08:00:53.444Z,101625.53
2018-10-05T08:03:21.676Z,101623.02
2018-10-05T08:05:49.911Z,101623.85
2018-10-05T08:08:18.182Z,101620.02
2018-10-05T08:10:47.336Z,101611.47
2018-10-05T08:13:16.707Z,101615.58
2018-10-05T08:15:44.962Z,101622.67
2018-10-05T08:18:13.124Z,101620.15
2018-10-05T08:20:41.363Z,101627.27
2018-10-05T08:23:09.558Z,101622.10
2018-10-05T08:25:37.759Z,101617.38
2018-10-05T08:28:05.955Z,101621.97
2018-10-05T08:30:34.200Z,101612.09
2018-10-05T08:33:02.352Z,101610.41
2018-10-05T08:35:30.509Z,101614.48
2018-10-05T08:37:58.695Z,101607.50
2018-10-05T08:40:26.886Z,101607.63
2018-10-05T08:42:55.044Z,101594.48
2018-10-05T08:45:23.244Z,101594.22
2018-10-05T08:47:51.398Z,101588.67
2018-10-05T08:50:19.551Z,101588.44
2018-10-05T08:52:47.754Z,101585.54
2018-10-05T08:55:15.934Z,101585.63
2018-10-05T08:57:44.182Z,101584.06
2018-10-05T09:00:12.456Z,101573.57
2018-10-05T09:02:40.530Z,101573.69
2018-10-05T09:05:08.946Z,101568.62
2018-10-05T09:07:37.162Z,101570.88
2018-10-05T09:10:05.441Z,101566.41
2018-10-05T09:12:33.604Z,101559.88
2018-10-05T09:15:01.818Z,101559.97
2018-10-05T09:17:30.128Z,101557.81
2018-10-05T09:19:58.372Z,101553.83
2018-10-05T09:22:26.582Z,101550.16
2018-10-05T09:24:55.146Z,101547.72
2018-10-05T09:27:23.328Z,101547.42
2018-10-05T09:29:51.656Z,101545.17
2018-10-05T09:32:20.011Z,101537.77
2018-10-05T09:34:48.218Z,101525.37
2018-10-05T09:37:16.414Z,101527.33
2018-10-05T09:39:44.587Z,101521.88
2018-10-05T09:42:12.799Z,101518.95
2018-10-05T09:44:41.111Z,101510.72
2018-10-05T09:47:09.225Z,101510.06
2018-10-05T09:49:37.443Z,101501.23
2018-10-05T09:52:05.642Z,101504.54
2018-10-05T09:54:33.912Z,101496.34
2018-10-05T09:57:02.123Z,101490.79
2018-10-05T09:59:30.316Z,101480.56
2018-10-05T10:02:03.711Z,101480.59
2018-10-05T10:04:31.979Z,101476.48
2018-10-05T10:07:00.229Z,101483.34
2018-10-05T10:09:28.424Z,101479.20
2018-10-05T10:11:56.618Z,101470.51
2018-10-05T10:14:24.815Z,101467.77
2018-10-05T10:16:52.991Z,101464.60
2018-10-05T10:19:21.179Z,101456.90
2018-10-05T10:21:49.425Z,101462.83
2018-10-05T10:24:17.532Z,101457.76
2018-10-05T10:26:45.743Z,101453.55
2018-10-05T10:29:14.029Z,101449.99
2018-10-05T10:31:42.199Z,101448.41
2018-10-05T10:34:10.376Z,101439.80
2018-10-05T10:36:38.513Z,101437.70
2018-10-05T10:39:07.814Z,101433.08
2018-10-05T10:41:36.051Z,101430.17
2018-10-05T10:44:04.270Z,101431.95
2018-10-05T10:46:32.506Z,101423.83
2018-10-05T10:49:00.721Z,101413.66
2018-10-05T10:51:28.921Z,101411.37
2018-10-05T10:53:57.136Z,101409.06
2018-10-05T10:56:25.768Z,101403.27
2018-10-05T10:58:53.924Z,101391.24
2018-10-05T11:01:22.080Z,101394.47
2018-10-05T11:03:50.276Z,101393.84
2018-10-05T11:06:18.875Z,101385.63
2018-10-05T11:08:47.087Z,101377.79
2018-10-05T11:11:15.260Z,101371.42
2018-10-05T11:13:43.462Z,101365.39
2018-10-05T11:16:11.650Z,101364.03
2018-10-05T11:18:39.838Z,101362.33
2018-10-05T11:21:08.095Z,101354.65
2018-10-05T11:23:36.288Z,101347.74
2018-10-05T11:26:04.465Z,101339.49
2018-10-05T11:28:32.696Z,101334.95
2018-10-05T11:31:00.943Z,101338.75
2018-10-05T11:33:29.274Z,101325.50
2018-10-05T11:35:57.473Z,101325.78
2018-10-05T11:38:25.695Z,101325.26
2018-10-05T11:40:53.961Z,101330.56
2018-10-05T11:43:22.130Z,101319.80
2018-10-05T11:45:50.372Z,101321.78
2018-10-05T11:48:18.597Z,101315.37
2018-10-05T11:50:46.794Z,101309.27
2018-10-05T11:53:14.994Z,101307.80
2018-10-05T11:55:43.238Z,101302.30
2018-10-05T11:58:11.455Z,101295.64
2018-10-05T12:00:39.725Z,101291.20
2018-10-05T12:03:07.898Z,101289.21
2018-10-05T12:05:36.122Z,101291.55
2018-10-05T12:08:04.387Z,101289.52
2018-10-05T12:10:32.614Z,101278.83
2018-10-05T12:13:01.148Z,101279.58
2018-10-05T12:15:29.317Z,101264.91
2018-10-05T12:17:57.495Z,101272.52
2018-10-05T12:20:25.674Z,101268.55
2018-10-05T12:22:53.957Z,101262.86
2018-10-05T12:25:22.180Z,101261.19
2018-10-05T12:27:50.355Z,101263.48
2018-10-05T12:30:18.523Z,101255.60
2018-10-05T12:32:46.723Z,101247.35
2018-10-05T12:35:14.919Z,101240.95
2018-10-05T12:37:43.141Z,101238.56
2018-10-05T12:40:11.435Z,101238.33
2018-10-05T12:42:39.652Z,101239.32
2018-10-05T12:45:07.862Z,101234.06
2018-10-05T12:47:36.107Z,101232.90
2018-10-05T12:50:04.434Z,101231.16
2018-10-05T12:52:32.604Z,101224.59
2018-10-05T12:55:00.791Z,101224.11
2018-10-05T12:57:29.104Z,101228.69
2018-10-05T12:59:57.339Z,101224.39
2018-10-05T13:02:25.513Z,101223.52
2018-10-05T13:04:53.714Z,101204.98
2018-10-05T13:07:21.929Z,101206.23
2018-10-05T13:09:50.171Z,101204.37
2018-10-05T13:12:18.400Z,101204.81
2018-10-05T13:14:46.592Z,101200.25
2018-10-05T13:17:14.759Z,101187.47
2018-10-05T13:19:43.131Z,101185.07
2018-10-05T13:22:11.354Z,101179.60
2018-10-05T13:24:39.631Z,101178.56
2018-10-05T13:27:07.834Z,101178.50
2018-10-05T13:29:35.978Z,101177.92
2018-10-05T13:32:04.127Z,101168.63
2018-10-05T13:34:32.331Z,101167.31
2018-10-05T13:37:00.611Z,101163.97
2018-10-05T13:39:28.791Z,101161.28
2018-10-05T13:41:57.064Z,101162.67
2018-10-05T13:44:25.159Z,101151.64
2018-10-05T13:46:53.407Z,101153.48
2018-10-05T13:49:21.579Z,101154.31
2018-10-05T13:51:49.763Z,101140.91
2018-10-05T13:54:17.969Z,101140.22
2018-10-05T13:56:46.208Z,101137.21
2018-10-05T13:59:14.391Z,101130.86
2018-10-05T14:01:43.974Z,101128.02
2018-10-05T14:04:12.240Z,101121.63
2018-10-05T14:06:40.455Z,101127.00
2018-10-05T14:09:09.864Z,101115.44
2018-10-05T14:11:38.136Z,101118.29
2018-10-05T14:14:06.614Z,101111.09
2018-10-05T14:16:34.955Z,101110.45
2018-10-05T14:19:03.232Z,101106.39
2018-10-05T14:21:31.751Z,101106.22
2018-10-05T14:23:59.992Z,101104.96
2018-10-05T14:26:28.163Z,101091.81
2018-10-05T14:28:56.392Z,101092.14
2018-10-05T14:31:24.614Z,101089.28
2018-10-05T14:33:52.885Z,101086.78
2018-10-05T14:36:21.186Z,101083.27
2018-10-05T14:38:49.897Z,101080.76
2018-10-05T14:41:18.095Z,101072.39
2018-10-05T14:43:46.303Z,101069.08
2018-10-05T14:46:14.539Z,101067.25
2018-10-05T14:48:42.707Z,101062.75
2018-10-05T14:51:10.884Z,101054.41
2018-10-05T14:53:39.047Z,101050.45
2018-10-05T14:56:07.232Z,101047.78
2018-10-05T14:58:35.467Z,101040.47
2018-10-05T15:01:03.705Z,101037.33
2018-10-05T15:03:31.898Z,101033.19
2018-10-05T15:06:00.103Z,101039.22
2018-10-05T15:08:28.519Z,101032.70
2018-10-05T15:10:56.686Z,101032.88
2018-10-05T15:13:24.968Z,101026.52
2018-10-05T15:15:53.206Z,101033.39
2018-10-05T15:18:21.575Z,101031.56
2018-10-05T15:20:49.771Z,101028.25
2018-10-05T15:23:18.070Z,101028.60
2018-10-05T15:25:46.306Z,101030.28
2018-10-05T15:28:14.547Z,101026.95
2018-10-05T15:30:42.714Z,101026.96
2018-10-05T15:33:10.887Z,101031.36
2018-10-05T15:35:39.061Z,101015.45
2018-10-05T15:38:07.264Z,101020.16
2018-10-05T15:40:35.459Z,101013.30
2018-10-05T15:43:03.636Z,101006.11
2018-10-05T15:45:31.818Z,101004.62
2018-10-05T15:47:59.991Z,101006.00
2018-10-05T15:50:28.183Z,101006.52
2018-10-05T15:52:56.449Z,101011.38
2018-10-05T15:55:24.607Z,101006.53
2018-10-05T15:57:52.827Z,101008.08
2018-10-05T16:00:21.043Z,101005.73
2018-10-05T16:02:49.260Z,101006.75
2018-10-05T16:05:17.497Z,101012.58
2018-10-05T16:07:45.684Z,101016.93
2018-10-05T16:10:13.843Z,101014.80
2018-10-05T16:12:43.012Z,101009.45
2018-10-05T16:15:11.207Z,101015.80
2018-10-05T16:17:39.376Z,101018.31
2018-10-05T16:20:07.639Z,101013.30
2018-10-05T16:22:35.830Z,101022.50
2018-10-05T16:25:04.086Z,101017.52
2018-10-05T16:27:32.255Z,101012.34
2018-10-05T16:30:00.439Z,101014.52
2018-10-05T16:32:28.648Z,101010.37
2018-10-05T16:34:56.863Z,101011.88
2018-10-05T16:37:25.462Z,101011.91
2018-10-05T16:39:53.600Z,101005.72
2018-10-05T16:42:21.771Z,101006.22
2018-10-05T16:44:49.964Z,101006.08
2018-10-05T16:47:18.126Z,101003.23
2018-10-05T16:49:46.383Z,101000.88
2018-10-05T16:52:14.552Z,100998.20
2018-10-05T16:54:42.737Z,100989.86
2018-10-05T16:57:10.968Z,100988.34
2018-10-05T16:59:39.168Z,100987.16
2018-10-05T17:02:07.335Z,100982.84
2018-10-05T17:04:35.503Z,100992.17
2018-10-05T17:07:03.683Z,100986.48
2018-10-05T17:09:32.271Z,100985.51
2018-10-05T17:12:02.606Z,100988.50
2018-10-05T17:14:31.011Z,100982.65
2018-10-05T17:16:59.802Z,100989.15
2018-10-05T17:19:28.010Z,100997.32
2018-10-05T17:21:56.212Z,100993.49
2018-10-05T17:24:24.392Z,100994.31
2018-10-05T17:26:52.580Z,101002.82
2018-10-05T17:29:20.834Z,100995.81
2018-10-05T17:31:52.023Z,100997.14
2018-10-05T17:34:20.242Z,100999.47
2018-10-05T17:36:48.438Z,100993.45
2018-10-05T17:39:16.608Z,100996.29
2018-10-05T17:41:44.763Z,101000.11
2018-10-05T17:44:12.923Z,100999.97
2018-10-05T17:46:41.135Z,100993.45
2018-10-05T17:49:09.299Z,100993.44
2018-10-05T17:51:37.458Z,100996.08
2018-10-05T17:54:05.745Z,100997.90
2018-10-05T17:56:33.960Z,100999.42
2018-10-05T17:59:03.250Z,101002.09
2018-10-05T18:01:31.482Z,100996.75
2018-10-05T18:03:59.751Z,101001.09
2018-10-05T18:06:27.915Z,100997.90
2018-10-05T18:08:56.166Z,101007.91
2018-10-05T18:11:24.420Z,100995.75
2018-10-05T18:13:52.602Z,100997.92
2018-10-05T18:16:20.776Z,100998.08
2018-10-05T18:18:48.955Z,100993.73
2018-10-05T18:21:17.163Z,100995.06
2018-10-05T18:23:45.343Z,100991.75
2018-10-05T18:26:13.675Z,100991.75
2018-10-05T18:28:41.715Z,100997.09
2018-10-05T18:31:09.931Z,100989.74
2018-10-05T18:33:38.185Z,100988.07
2018-10-05T18:36:06.343Z,100983.73
2018-10-05T18:38:34.519Z,100982.05
2018-10-05T18:41:02.690Z,100979.70
2018-10-05T18:43:30.870Z,100985.33
2018-10-05T18:45:59.107Z,100980.98
2018-10-05T18:48:27.291Z,100981.64
2018-10-05T18:50:55.853Z,100980.66
2018-10-05T18:53:24.194Z,100978.64
2018-10-05T18:55:52.678Z,100978.64
2018-10-05T18:58:21.026Z,100975.64
2018-10-05T19:00:50.450Z,100932.16
2018-10-05T19:03:18.694Z,100979.77
2018-10-05T19:05:47.081Z,100980.61
2018-10-05T19:08:16.228Z,100985.27
2018-10-05T19:10:44.447Z,100984.59
2018-10-05T19:13:12.776Z,100984.27
2018-10-05T19:15:41.768Z,100987.59
2018-10-05T19:18:10.677Z,100988.91
2018-10-05T19:20:39.023Z,100989.25
2018-10-05T19:23:07.468Z,100981.56
2018-10-05T19:25:35.759Z,100984.56
2018-10-05T19:28:03.992Z,100990.21
2018-10-05T19:30:32.443Z,100983.20
2018-10-05T19:33:00.787Z,100986.21
2018-10-05T19:35:29.092Z,100979.86
2018-10-05T19:37:57.333Z,100982.19
2018-10-05T19:40:25.652Z,100978.19
2018-10-05T19:42:53.947Z,100971.16
2018-10-05T19:45:22.779Z,100973.64
2018-10-05T19:47:51.626Z,100971.12
2018-10-05T19:50:19.779Z,100965.45
2018-10-05T19:52:48.365Z,100967.28
2018-10-05T19:55:16.763Z,100963.47
2018-10-05T19:57:44.994Z,100965.61
2018-10-05T20:00:13.293Z,100962.27
2018-10-05T20:02:41.530Z,100966.08
2018-10-05T20:05:09.870Z,100956.91
2018-10-05T20:07:38.402Z,100950.39
2018-10-05T20:10:08.423Z,100953.71
2018-10-05T20:12:36.589Z,100948.01
2018-10-05T20:15:05.695Z,100950.14
2018-10-05T20:17:34.655Z,100947.63
2018-10-05T20:20:02.814Z,100955.78
2018-10-05T20:22:30.978Z,100951.59
2018-10-05T20:24:59.198Z,100952.05
2018-10-05T20:27:27.472Z,100953.55
2018-10-05T20:29:55.706Z,100949.20
2018-10-05T20:32:23.932Z,100956.02
2018-10-05T20:34:52.134Z,100945.70
2018-10-05T20:37:20.421Z,100938.70
2018-10-05T20:39:48.660Z,100941.98
2018-10-05T20:42:16.939Z,100943.47
2018-10-05T20:44:45.329Z,100943.13
2018-10-05T20:47:13.542Z,100941.45
2018-10-05T20:49:41.873Z,100938.44
2018-10-05T20:52:10.129Z,100942.59
2018-10-05T20:54:38.416Z,100945.06
2018-10-05T20:57:07.451Z,100939.73
2018-10-05T20:59:38.640Z,100939.39
2018-10-05T21:02:06.835Z,100941.86
2018-10-05T21:04:35.032Z,100938.32
2018-10-05T21:07:03.243Z,100945.97
2018-10-05T21:09:31.441Z,100944.78
2018-10-05T21:11:59.608Z,100942.27
2018-10-05T21:14:28.349Z,100941.28
2018-10-05T21:16:56.523Z,100942.41
2018-10-05T21:19:24.832Z,100942.76
2018-10-05T21:21:53.008Z,100937.59
2018-10-05T21:24:27.578Z,100946.56
2018-10-05T21:26:55.758Z,100941.53
2018-10-05T21:29:24.017Z,100947.16
2018-10-05T21:31:52.201Z,100942.98
2018-10-05T21:34:20.398Z,100938.33
2018-10-05T21:36:48.563Z,100937.98
2018-10-05T21:39:16.805Z,100941.29
2018-10-05T21:41:45.028Z,100940.95
2018-10-05T21:44:13.184Z,100944.25
2018-10-05T21:46:41.340Z,100939.23
2018-10-05T21:49:09.518Z,100937.21
2018-10-05T21:51:37.707Z,100938.34
2018-10-05T21:54:05.879Z,100944.00
2018-10-05T21:56:34.028Z,100938.97
2018-10-05T21:59:02.198Z,100938.63
2018-10-05T22:01:30.346Z,100940.95
2018-10-05T22:03:58.539Z,100947.06
2018-10-05T22:06:26.702Z,100945.37
2018-10-05T22:08:54.847Z,100940.98
2018-10-05T22:11:23.048Z,100944.14
2018-10-05T22:13:51.219Z,100935.47
2018-10-05T22:16:19.415Z,100935.61
2018-10-05T22:18:47.571Z,100935.76
2018-10-05T22:21:15.755Z,100929.95
2018-10-05T22:23:43.922Z,100934.58
2018-10-05T22:26:12.103Z,100934.56
2018-10-05T22:28:40.290Z,100927.71
2018-10-05T22:31:08.486Z,100935.64
2018-10-05T22:33:36.697Z,100934.45
2018-10-05T22:36:04.874Z,100929.78
2018-10-05T22:38:33.052Z,100930.91
2018-10-05T22:41:01.213Z,100925.91
2018-10-05T22:43:29.404Z,100921.55
2018-10-05T22:45:57.539Z,100917.10
2018-10-05T22:48:25.719Z,100920.95
2018-10-05T22:50:53.868Z,100914.90
2018-10-05T22:53:22.134Z,100916.61
2018-10-05T22:55:50.322Z,100914.79
2018-10-05T22:58:18.465Z,100914.64
2018-10-05T23:00:46.640Z,100911.48
2018-10-05T23:03:15.071Z,100911.14
2018-10-05T23:05:43.246Z,100910.66
2018-10-05T23:08:11.419Z,100905.33
2018-10-05T23:10:39.584Z,100901.34
2018-10-05T23:13:07.767Z,100911.98
2018-10-05T23:15:35.979Z,100903.31
2018-10-05T23:18:04.171Z,100907.80
2018-10-05T23:20:32.367Z,100900.91
2018-10-05T23:23:00.595Z,100899.88
2018-10-05T23:25:28.744Z,100899.68
2018-10-05T23:27:56.955Z,100898.83
2018-10-05T23:30:25.119Z,100898.77
2018-10-05T23:32:53.265Z,100896.06
2018-10-05T23:35:21.414Z,100885.86
2018-10-05T23:37:49.608Z,100878.02
2018-10-05T23:40:17.762Z,100880.61
2018-10-05T23:42:46.024Z,100875.94
2018-10-05T23:45:14.223Z,100876.92
2018-10-05T23:47:42.408Z,100873.08
2018-10-05T23:50:10.610Z,100885.03
2018-10-05T23:52:41.932Z,100878.88
2018-10-05T23:55:10.157Z,100880.84
2018-10-05T23:57:38.938Z,100881.69
